createdAt,value
2018-06-17T00:00:23.612Z,52.57
2018-06-17T00:02:58.049Z,57.47
2018-06-17T00:05:32.620Z,50.43
2018-06-17T00:08:07.047Z,47.23
2018-06-17T00:10:41.656Z,43.90
2018-06-17T00:13:16.312Z,45.50
2018-06-17T00:15:50.713Z,51.43
2018-06-17T00:18:25.072Z,40.87
2018-06-17T00:20:59.525Z,34.77
2018-06-17T00:23:34.048Z,40.73
2018-06-17T00:26:09.048Z,47.07
2018-06-17T00:28:43.768Z,52.40
2018-06-17T00:31:18.212Z,49.17
2018-06-17T00:33:52.844Z,50.80
2018-06-17T00:36:27.256Z,50.47
2018-06-17T00:39:01.669Z,44.00
2018-06-17T00:41:36.472Z,49.63
2018-06-17T00:44:11.033Z,40.63
2018-06-17T00:46:45.489Z,33.63
2018-06-17T00:49:20.225Z,41.57
2018-06-17T00:51:54.857Z,42.23
2018-06-17T00:54:29.321Z,38.53
2018-06-17T00:57:15.183Z,31.87
2018-06-17T00:59:49.600Z,36.13
2018-06-17T01:02:24.342Z,30.27
2018-06-17T01:04:58.748Z,35.80
2018-06-17T01:07:33.249Z,34.80
2018-06-17T01:10:07.803Z,30.87
2018-06-17T01:12:42.484Z,31.50
2018-06-17T01:15:17.352Z,32.30
2018-06-17T01:17:52.012Z,32.60
2018-06-17T01:20:26.421Z,36.90
2018-06-17T01:23:01.017Z,33.57
2018-06-17T01:25:35.523Z,27.13
2018-06-17T01:28:09.924Z,19.47
2018-06-17T01:30:44.431Z,18.10
2018-06-17T01:33:19.005Z,21.57
2018-06-17T01:35:53.536Z,19.93
2018-06-17T01:38:28.115Z,22.80
2018-06-17T01:41:02.536Z,20.17
2018-06-17T01:43:37.127Z,17.83
2018-06-17T01:46:11.594Z,18.03
2018-06-17T01:48:46.482Z,15.80
2018-06-17T01:51:21.136Z,19.50
2018-06-17T01:53:55.578Z,15.40
2018-06-17T01:56:30.232Z,19.03
2018-06-17T01:59:04.750Z,13.47
2018-06-17T02:01:39.752Z,15.13
2018-06-17T02:05:20.459Z,16.53
2018-06-17T02:08:00.509Z,16.37
2018-06-17T02:10:40.583Z,16.67
2018-06-17T02:13:15.220Z,20.43
2018-06-17T02:15:49.889Z,23.20
2018-06-17T02:18:24.368Z,24.43
2018-06-17T02:20:58.954Z,24.30
2018-06-17T02:23:33.727Z,27.17
2018-06-17T02:26:08.250Z,30.97
2018-06-17T02:28:42.835Z,38.20
2018-06-17T02:31:17.357Z,31.10
2018-06-17T02:33:52.140Z,29.53
2018-06-17T02:36:26.658Z,27.47
2018-06-17T02:39:01.288Z,26.63
2018-06-17T02:41:36.108Z,23.37
2018-06-17T02:44:10.688Z,19.57
2018-06-17T02:46:50.520Z,22.63
2018-06-17T02:49:30.518Z,19.73
2018-06-17T02:52:11.171Z,16.03
2018-06-17T02:54:46.762Z,18.97
2018-06-17T02:57:21.375Z,20.77
2018-06-17T02:59:55.785Z,20.93
2018-06-17T03:02:30.245Z,20.50
2018-06-17T03:05:04.841Z,15.93
2018-06-17T03:07:39.444Z,15.70
2018-06-17T03:10:13.930Z,19.70
2018-06-17T03:12:48.325Z,21.67
2018-06-17T03:15:22.716Z,16.30
2018-06-17T03:17:57.166Z,19.77
2018-06-17T03:20:31.610Z,24.20
2018-06-17T03:23:06.044Z,18.00
2018-06-17T03:25:46.002Z,18.57
2018-06-17T03:28:25.819Z,17.87
2018-06-17T03:31:05.785Z,21.67
2018-06-17T03:33:45.752Z,12.33
2018-06-17T03:36:20.622Z,12.90
2018-06-17T03:38:55.248Z,16.87
2018-06-17T03:41:29.824Z,13.50
2018-06-17T03:44:04.171Z,16.87
2018-06-17T03:46:38.817Z,12.50
2018-06-17T03:49:13.361Z,20.20
2018-06-17T03:51:48.168Z,16.77
2018-06-17T03:54:22.798Z,12.53
2018-06-17T03:59:56.693Z,15.87
2018-06-17T04:02:33.620Z,16.30
2018-06-17T04:05:13.496Z,15.03
2018-06-17T04:07:47.988Z,13.63
2018-06-17T04:10:22.586Z,14.10
2018-06-17T04:12:57.001Z,13.13
2018-06-17T04:15:31.542Z,13.67
2018-06-17T04:18:07.004Z,12.70
2018-06-17T04:20:41.666Z,15.53
2018-06-17T04:23:16.056Z,12.37
2018-06-17T04:25:50.658Z,12.23
2018-06-17T04:28:25.309Z,13.37
2018-06-17T04:30:59.859Z,10.90
2018-06-17T04:33:34.532Z,15.57
2018-06-17T04:36:08.927Z,11.47
2018-06-17T04:38:43.473Z,11.30
2018-06-17T04:41:17.920Z,13.90
2018-06-17T04:43:52.393Z,10.07
2018-06-17T04:46:26.756Z,11.37
2018-06-17T04:49:01.242Z,9.50
2018-06-17T04:51:35.812Z,8.47
2018-06-17T04:54:10.964Z,10.33
2018-06-17T04:56:45.528Z,14.40
2018-06-17T04:59:19.911Z,10.73
2018-06-17T05:01:54.395Z,10.37
2018-06-17T05:04:28.933Z,11.50
2018-06-17T05:07:03.758Z,8.83
2018-06-17T05:09:38.265Z,11.53
2018-06-17T05:12:12.751Z,13.37
2018-06-17T05:14:47.402Z,8.33
2018-06-17T05:17:22.162Z,13.63
2018-06-17T05:19:56.558Z,13.27
2018-06-17T05:22:31.085Z,12.30
2018-06-17T05:25:05.612Z,12.93
2018-06-17T05:27:40.230Z,7.97
2018-06-17T05:30:14.716Z,10.87
2018-06-17T05:32:49.112Z,11.13
2018-06-17T05:35:23.724Z,11.77
2018-06-17T05:37:58.293Z,14.07
2018-06-17T05:40:33.987Z,10.93
2018-06-17T05:43:08.423Z,14.30
2018-06-17T05:45:42.851Z,15.87
2018-06-17T05:48:17.088Z,12.03
2018-06-17T05:50:51.320Z,10.13
2018-06-17T05:53:25.859Z,14.93
2018-06-17T05:56:00.119Z,9.83
2018-06-17T05:58:34.564Z,7.53
2018-06-17T06:01:08.985Z,9.93
2018-06-17T06:03:43.404Z,9.10
2018-06-17T06:06:17.956Z,8.20
2018-06-17T06:08:52.461Z,11.50
2018-06-17T06:11:26.902Z,10.70
2018-06-17T06:14:01.246Z,10.40
2018-06-17T06:16:35.600Z,9.97
2018-06-17T06:19:09.944Z,10.07
2018-06-17T06:21:44.232Z,7.20
2018-06-17T06:24:18.640Z,9.67
2018-06-17T06:26:52.960Z,7.30
2018-06-17T06:29:27.655Z,6.70
2018-06-17T06:32:01.924Z,8.60
2018-06-17T06:34:36.355Z,8.20
2018-06-17T06:37:10.779Z,5.93
2018-06-17T06:39:45.154Z,6.57
2018-06-17T06:42:19.512Z,7.60
2018-06-17T06:44:53.826Z,8.90
2018-06-17T06:47:28.236Z,6.37
2018-06-17T06:50:02.617Z,5.93
2018-06-17T06:52:37.001Z,9.10
2018-06-17T06:55:11.621Z,8.73
2018-06-17T06:57:46.011Z,4.93
2018-06-17T07:00:20.339Z,5.73
2018-06-17T07:03:06.086Z,6.83
2018-06-17T07:05:51.983Z,7.07
2018-06-17T07:08:37.874Z,4.77
2018-06-17T07:11:12.349Z,7.50
2018-06-17T07:13:46.777Z,6.00
2018-06-17T07:16:32.353Z,7.83
2018-06-17T07:19:06.736Z,5.63
2018-06-17T07:21:41.168Z,6.50
2018-06-17T07:24:15.543Z,7.10
2018-06-17T07:27:01.419Z,11.00
2018-06-17T07:29:45.567Z,7.37
2018-06-17T07:32:19.783Z,8.53
2018-06-17T07:34:54.076Z,9.13
2018-06-17T07:37:28.357Z,8.53
2018-06-17T07:41:06.118Z,7.37
2018-06-17T07:43:40.631Z,6.17
2018-06-17T07:46:15.056Z,8.07
2018-06-17T07:49:26.178Z,8.00
2018-06-17T08:00:55.552Z,5.97
2018-06-17T08:03:30.041Z,7.23
2018-06-17T08:06:04.296Z,6.53
2018-06-17T08:08:38.667Z,10.07
2018-06-17T08:11:13.098Z,5.03
2018-06-17T08:13:47.368Z,6.17
2018-06-17T08:16:21.799Z,8.30
2018-06-17T08:18:56.084Z,6.17
2018-06-17T08:21:30.724Z,9.33
2018-06-17T08:24:05.161Z,6.73
2018-06-17T08:26:39.484Z,5.47
2018-06-17T08:29:13.920Z,6.57
2018-06-17T08:31:48.195Z,7.17
2018-06-17T08:34:22.688Z,7.47
2018-06-17T08:36:57.036Z,8.80
2018-06-17T08:39:31.390Z,6.40
2018-06-17T08:42:05.820Z,6.50
2018-06-17T08:44:40.211Z,6.07
2018-06-17T08:47:14.667Z,7.30
2018-06-17T08:52:45.783Z,4.40
2018-06-17T08:55:20.387Z,8.40
2018-06-17T08:57:54.930Z,6.27
2018-06-17T09:00:29.328Z,7.63
2018-06-17T09:03:03.803Z,6.10
2018-06-17T09:05:38.200Z,7.63
2018-06-17T09:08:12.465Z,8.37
2018-06-17T09:10:46.675Z,7.03
2018-06-17T09:13:20.979Z,8.40
2018-06-17T09:15:56.018Z,8.47
2018-06-17T09:18:30.788Z,7.40
2018-06-17T09:21:05.418Z,5.47
2018-06-17T09:23:39.817Z,6.70
2018-06-17T09:26:14.557Z,8.87
2018-06-17T09:28:49.248Z,7.37
2018-06-17T09:31:24.165Z,6.10
2018-06-17T09:33:58.721Z,6.80
2018-06-17T09:36:33.429Z,6.57
2018-06-17T09:39:08.776Z,8.37
2018-06-17T09:41:43.265Z,8.13
2018-06-17T09:44:17.830Z,6.40
2018-06-17T09:46:52.337Z,7.33
2018-06-17T09:49:26.930Z,6.50
2018-06-17T09:52:01.424Z,6.03
2018-06-17T09:54:35.792Z,5.50
2018-06-17T09:57:10.160Z,8.23
2018-06-17T09:59:45.083Z,5.57
2018-06-17T10:02:19.790Z,5.23
2018-06-17T10:04:54.274Z,5.10
2018-06-17T10:07:28.662Z,5.40
2018-06-17T10:10:15.365Z,6.33
2018-06-17T10:12:49.861Z,5.07
2018-06-17T10:15:24.388Z,8.43
2018-06-17T10:17:58.939Z,3.70
2018-06-17T10:20:33.510Z,13.70
2018-06-17T10:23:08.292Z,8.27
2018-06-17T10:25:42.794Z,6.47
2018-06-17T10:28:17.554Z,6.10
2018-06-17T10:30:52.849Z,5.50
2018-06-17T10:33:27.344Z,4.23
2018-06-17T10:36:01.863Z,7.30
2018-06-17T10:38:36.169Z,7.33
2018-06-17T10:41:10.435Z,6.67
2018-06-17T10:43:44.879Z,6.80
2018-06-17T10:46:19.299Z,8.07
2018-06-17T10:48:53.773Z,6.10
2018-06-17T10:51:28.021Z,8.50
2018-06-17T10:54:02.451Z,6.80
2018-06-17T10:56:36.726Z,5.73
2018-06-17T10:59:11.184Z,9.40
2018-06-17T11:01:45.831Z,6.40
2018-06-17T11:04:20.575Z,6.00
2018-06-17T11:07:09.523Z,6.47
2018-06-17T11:09:43.844Z,6.07
2018-06-17T11:12:18.208Z,5.73
2018-06-17T11:14:52.495Z,6.13
2018-06-17T11:17:27.034Z,4.67
2018-06-17T11:20:01.292Z,6.13
2018-06-17T11:22:35.643Z,7.10
2018-06-17T11:25:10.228Z,5.30
2018-06-17T11:27:44.479Z,7.97
2018-06-17T11:30:18.796Z,4.93
2018-06-17T11:32:53.235Z,4.53
2018-06-17T11:35:27.526Z,5.67
2018-06-17T11:38:01.905Z,6.73
2018-06-17T11:40:36.315Z,7.03
2018-06-17T11:43:10.667Z,7.07
2018-06-17T11:45:45.259Z,6.27
2018-06-17T11:48:19.803Z,5.47
2018-06-17T11:50:54.114Z,7.90
2018-06-17T11:53:28.323Z,7.40
2018-06-17T11:56:02.692Z,7.40
2018-06-17T11:58:37.075Z,5.13
2018-06-17T12:01:11.552Z,7.47
2018-06-17T12:03:45.839Z,6.07
2018-06-17T12:06:20.536Z,7.43
2018-06-17T12:08:55.039Z,6.27
2018-06-17T12:11:29.391Z,6.47
2018-06-17T12:14:03.819Z,8.70
2018-06-17T12:16:38.152Z,4.57
2018-06-17T12:19:12.507Z,5.53
2018-06-17T12:21:46.792Z,9.33
2018-06-17T12:24:21.219Z,4.87
2018-06-17T12:26:55.644Z,7.23
2018-06-17T12:29:30.040Z,6.83
2018-06-17T12:32:04.444Z,4.93
2018-06-17T12:34:38.779Z,4.53
2018-06-17T12:37:13.099Z,6.77
2018-06-17T12:39:47.440Z,5.53
2018-06-17T12:42:21.867Z,7.03
2018-06-17T12:44:56.161Z,3.93
2018-06-17T12:47:30.651Z,10.97
2018-06-17T12:50:05.084Z,6.03
2018-06-17T12:52:39.304Z,6.80
2018-06-17T12:55:13.792Z,6.53
2018-06-17T12:57:48.188Z,6.50
2018-06-17T13:00:22.543Z,4.10
2018-06-17T13:02:56.954Z,7.77
2018-06-17T13:05:31.648Z,4.77
2018-06-17T13:08:06.532Z,4.27
2018-06-17T13:10:41.105Z,4.67
2018-06-17T13:13:15.769Z,6.63
2018-06-17T13:15:50.218Z,4.93
2018-06-17T13:18:24.834Z,3.63
2018-06-17T13:20:59.441Z,4.97
2018-06-17T13:23:34.424Z,4.37
2018-06-17T13:26:08.939Z,4.03
2018-06-17T13:28:43.617Z,5.03
2018-06-17T13:31:18.064Z,4.73
2018-06-17T13:33:52.428Z,3.17
2018-06-17T13:36:27.228Z,5.20
2018-06-17T13:39:01.948Z,5.80
2018-06-17T13:41:36.500Z,7.43
2018-06-17T13:44:11.132Z,6.93
2018-06-17T13:46:45.762Z,5.37
2018-06-17T13:49:20.328Z,5.90
2018-06-17T13:51:54.928Z,4.43
2018-06-17T13:54:29.310Z,3.80
2018-06-17T13:57:03.781Z,5.13
2018-06-17T13:59:38.285Z,4.27
2018-06-17T14:02:12.782Z,7.23
2018-06-17T14:04:47.292Z,4.93
2018-06-17T14:07:21.778Z,5.27
2018-06-17T14:09:56.535Z,3.40
2018-06-17T14:12:31.141Z,5.77
2018-06-17T14:15:06.357Z,5.67
2018-06-17T14:17:41.126Z,10.13
2018-06-17T14:20:15.681Z,6.00
2018-06-17T14:22:50.231Z,3.47
2018-06-17T14:25:24.650Z,4.17
2018-06-17T14:27:59.113Z,5.97
2018-06-17T14:30:33.686Z,5.73
2018-06-17T14:33:08.178Z,5.77
2018-06-17T14:35:42.615Z,5.07
2018-06-17T14:38:17.432Z,4.77
2018-06-17T14:40:57.385Z,5.73
2018-06-17T14:43:37.284Z,4.20
2018-06-17T14:46:17.225Z,6.97
2018-06-17T14:48:57.092Z,4.63
2018-06-17T14:51:37.006Z,5.33
2018-06-17T14:54:11.619Z,3.07
2018-06-17T14:56:46.208Z,5.90
2018-06-17T14:59:20.674Z,3.20
2018-06-17T15:01:55.341Z,4.63
2018-06-17T15:04:29.919Z,5.67
2018-06-17T15:07:04.355Z,13.47
2018-06-17T15:09:38.846Z,5.47
2018-06-17T15:12:14.282Z,6.63
2018-06-17T15:14:49.193Z,4.90
2018-06-17T15:17:23.716Z,7.37
2018-06-17T15:19:58.309Z,6.70
2018-06-17T15:22:32.889Z,8.20
2018-06-17T15:25:07.851Z,3.33
2018-06-17T15:27:42.545Z,7.27
2018-06-17T15:30:17.213Z,4.20
2018-06-17T15:32:57.008Z,8.03
2018-06-17T15:35:36.742Z,5.93
2018-06-17T15:38:16.689Z,7.30
2018-06-17T15:40:56.453Z,6.90
2018-06-17T15:43:30.956Z,5.30
2018-06-17T15:46:05.656Z,4.43
2018-06-17T15:48:40.279Z,11.93
2018-06-17T15:51:14.716Z,3.87
2018-06-17T15:53:49.573Z,14.53
2018-06-17T15:56:24.333Z,8.20
2018-06-17T15:58:58.888Z,6.13
2018-06-17T16:01:33.465Z,8.30
2018-06-17T16:04:07.946Z,6.00
2018-06-17T16:06:42.501Z,4.97
2018-06-17T16:09:17.076Z,7.17
2018-06-17T16:11:56.870Z,6.90
2018-06-17T16:14:36.729Z,8.17
2018-06-17T16:17:16.676Z,7.90
2018-06-17T16:19:56.492Z,5.13
2018-06-17T16:22:31.016Z,7.50
2018-06-17T16:25:05.558Z,3.93
2018-06-17T16:27:40.176Z,11.10
2018-06-17T16:30:14.824Z,5.73
2018-06-17T16:32:49.528Z,10.10
2018-06-17T16:35:23.979Z,13.07
2018-06-17T16:37:58.501Z,18.53
2018-06-17T16:40:32.972Z,17.23
2018-06-17T16:43:07.399Z,18.70
2018-06-17T16:45:41.849Z,6.03
2018-06-17T16:48:16.432Z,11.70
2018-06-17T16:50:56.413Z,21.07
2018-06-17T16:53:36.305Z,9.30
2018-06-17T16:56:16.224Z,4.63
2018-06-17T16:58:56.192Z,4.37
2018-06-17T17:01:30.746Z,5.83
2018-06-17T17:04:05.209Z,4.47
2018-06-17T17:06:39.877Z,6.50
2018-06-17T17:09:14.448Z,9.20
2018-06-17T17:11:48.904Z,4.17
2018-06-17T17:14:23.688Z,7.23
2018-06-17T17:16:58.364Z,7.13
2018-06-17T17:19:33.257Z,8.17
2018-06-17T17:22:07.707Z,9.20
2018-06-17T17:24:42.413Z,5.10
2018-06-17T17:27:17.080Z,3.03
2018-06-17T17:29:52.157Z,5.50
2018-06-17T17:32:31.859Z,5.47
2018-06-17T17:35:12.313Z,4.77
2018-06-17T17:37:52.113Z,4.73
2018-06-17T17:40:31.896Z,5.20
2018-06-17T17:43:06.516Z,5.00
2018-06-17T17:45:46.396Z,5.87
2018-06-17T17:48:21.360Z,7.93
2018-06-17T17:50:55.845Z,10.07
2018-06-17T17:53:30.769Z,6.33
2018-06-17T17:56:05.588Z,8.83
2018-06-17T17:58:40.040Z,6.27
2018-06-17T18:01:14.576Z,7.13
2018-06-17T18:03:49.057Z,5.30
2018-06-17T18:06:23.543Z,8.30
2018-06-17T18:09:04.623Z,5.43
2018-06-17T18:11:39.296Z,7.07
2018-06-17T18:14:13.862Z,4.93
2018-06-17T18:16:48.560Z,6.23
2018-06-17T18:19:22.968Z,9.37
2018-06-17T18:21:57.754Z,5.87
2018-06-17T18:24:32.424Z,4.47
2018-06-17T18:27:12.160Z,4.30
2018-06-17T18:29:52.051Z,7.87
2018-06-17T18:32:31.985Z,4.90
2018-06-17T18:35:11.817Z,7.10
2018-06-17T18:37:46.348Z,5.47
2018-06-17T18:43:01.136Z,6.83
2018-06-17T18:45:35.597Z,7.03
2018-06-17T18:48:10.233Z,5.63
2018-06-17T18:50:44.801Z,3.73
2018-06-17T18:53:22.601Z,5.97
2018-06-17T18:55:57.081Z,5.33
2018-06-17T18:58:31.568Z,6.60
2018-06-17T19:01:06.192Z,6.63
2018-06-17T19:03:40.846Z,5.40
2018-06-17T19:06:15.317Z,4.60
2018-06-17T19:08:55.283Z,10.03
2018-06-17T19:11:35.109Z,6.37
2018-06-17T19:14:14.965Z,5.47
2018-06-17T19:16:55.168Z,7.47
2018-06-17T19:19:29.748Z,5.70
2018-06-17T19:22:04.289Z,5.67
2018-06-17T19:24:38.886Z,5.73
2018-06-17T19:27:13.489Z,6.80
2018-06-17T19:29:47.877Z,7.60
2018-06-17T19:32:22.324Z,6.03
2018-06-17T19:34:56.816Z,6.60
2018-06-17T19:37:31.477Z,8.73
2018-06-17T19:40:06.217Z,7.63
2018-06-17T19:42:40.836Z,5.03
2018-06-17T19:45:15.355Z,5.60
2018-06-17T19:47:49.917Z,5.77
2018-06-17T19:50:29.653Z,7.83
2018-06-17T19:53:09.626Z,6.33
2018-06-17T19:55:49.765Z,6.93
2018-06-17T19:58:29.707Z,4.90
2018-06-17T20:01:05.037Z,3.60
2018-06-17T20:03:39.676Z,5.00
2018-06-17T20:06:14.285Z,7.67
2018-06-17T20:08:48.772Z,6.27
2018-06-17T20:11:23.136Z,6.17
2018-06-17T20:13:57.608Z,6.87
2018-06-17T20:16:31.981Z,8.43
2018-06-17T20:19:06.818Z,6.37
2018-06-17T20:21:41.367Z,6.47
2018-06-17T20:24:15.832Z,7.13
2018-06-17T20:26:50.275Z,7.10
2018-06-17T20:29:24.845Z,6.83
2018-06-17T20:32:04.592Z,7.10
2018-06-17T20:34:44.404Z,11.20
2018-06-17T20:37:24.404Z,4.13
2018-06-17T20:40:04.246Z,7.87
2018-06-17T20:42:44.177Z,5.20
2018-06-17T20:45:18.812Z,7.73
2018-06-17T20:47:53.901Z,4.80
2018-06-17T20:50:28.421Z,6.40
2018-06-17T20:53:02.817Z,6.47
2018-06-17T20:55:37.457Z,7.27
2018-06-17T20:58:11.993Z,6.50
2018-06-17T21:00:46.796Z,5.13
2018-06-17T21:03:21.362Z,5.20
2018-06-17T21:05:55.884Z,2.97
2018-06-17T21:08:30.373Z,7.83
2018-06-17T21:11:04.897Z,10.30
2018-06-17T21:13:39.368Z,6.47
2018-06-17T21:16:13.782Z,5.03
2018-06-17T21:18:53.764Z,5.53
2018-06-17T21:21:33.586Z,5.27
2018-06-17T21:24:13.733Z,5.23
2018-06-17T21:26:53.516Z,4.43
2018-06-17T21:29:28.037Z,6.87
2018-06-17T21:32:02.496Z,8.37
2018-06-17T21:34:36.974Z,4.87
2018-06-17T21:37:11.581Z,7.53
2018-06-17T21:39:46.350Z,9.33
2018-06-17T21:42:20.844Z,6.60
2018-06-17T21:44:55.243Z,7.80
2018-06-17T21:47:29.633Z,10.13
2018-06-17T21:50:04.192Z,6.57
2018-06-17T21:52:38.868Z,4.87
2018-06-17T21:55:13.400Z,6.93
2018-06-17T21:57:47.968Z,6.33
2018-06-17T22:00:22.525Z,6.77
2018-06-17T22:02:57.133Z,7.97
2018-06-17T22:05:31.657Z,5.17
2018-06-17T22:08:11.365Z,5.80
2018-06-17T22:10:51.159Z,6.93
2018-06-17T22:13:29.873Z,8.53
2018-06-17T22:16:10.241Z,7.47
2018-06-17T22:18:44.819Z,10.67
2018-06-17T22:21:19.408Z,9.40
2018-06-17T22:23:53.814Z,8.23
2018-06-17T22:26:28.577Z,9.20
2018-06-17T22:29:03.157Z,10.50
2018-06-17T22:31:38.424Z,7.53
2018-06-17T22:34:13.168Z,12.47
2018-06-17T22:36:47.717Z,9.13
2018-06-17T22:39:22.249Z,6.73
2018-06-17T22:41:56.592Z,7.57
2018-06-17T22:44:31.089Z,6.70
2018-06-17T22:47:05.732Z,8.63
2018-06-17T22:49:40.134Z,7.10
2018-06-17T22:52:14.532Z,9.80
2018-06-17T22:54:51.091Z,9.40
2018-06-17T22:57:30.867Z,7.00
2018-06-17T23:00:10.917Z,5.93
2018-06-17T23:02:50.722Z,10.83
2018-06-17T23:05:30.672Z,10.07
2018-06-17T23:08:10.653Z,4.80
2018-06-17T23:10:45.296Z,7.60
2018-06-17T23:25:14.659Z,10.93
2018-06-17T23:27:49.083Z,11.10
2018-06-17T23:30:23.483Z,7.50
2018-06-17T23:32:57.748Z,6.70
2018-06-17T23:35:32.131Z,7.67
2018-06-17T23:38:06.560Z,10.03
2018-06-17T23:40:40.832Z,8.17
2018-06-17T23:43:15.423Z,7.27
2018-06-17T23:45:55.333Z,5.27
2018-06-17T23:48:35.041Z,4.87
2018-06-17T23:51:14.905Z,7.57
2018-06-17T23:53:54.814Z,8.37
2018-06-17T23:56:29.265Z,9.50
2018-06-17T23:59:03.859Z,6.10
